Time,TemperatureF,DewpointF,PressureIn,WindDirection,WindDirectionDegrees,WindSpeedMPH,WindSpeedGustMPH,Humidity,HourlyPrecipIn,Conditions,Clouds,dailyrainin,SoftwareType,DateUTC
2013-01-25 00:01:00,26.5,8.0,30.43,South,169,8.0,10.0,45,0.00,,,0.00,Wunderground v.1.15,2013-01-25 05:01:00,
2013-01-25 00:06:00,26.5,8.0,30.42,South,188,10.0,17.0,45,0.00,,,0.00,Wunderground v.1.15,2013-01-25 05:06:00,
2013-01-25 00:08:00,26.6,8.6,30.42,SE,143,10.0,17.0,46,0.00,,,0.00,Wunderground v.1.15,2013-01-25 05:08:00,
2013-01-25 00:10:00,26.6,8.1,30.42,SSW,198,10.0,10.0,45,0.00,,,0.00,Wunderground v.1.15,2013-01-25 05:10:00,
2013-01-25 00:14:00,26.6,8.1,30.43,South,172,9.0,10.0,45,0.00,,,0.00,Wunderground v.1.15,2013-01-25 05:14:00,
2013-01-25 00:20:00,26.6,9.1,30.43,SSE,150,9.0,9.0,47,0.00,,,0.00,Wunderground v.1.15,2013-01-25 05:20:00,
2013-01-25 00:26:00,26.5,8.5,30.42,SSE,167,9.0,12.0,46,0.00,,,0.00,Wunderground v.1.15,2013-01-25 05:26:00,
2013-01-25 00:32:00,26.4,8.9,30.42,SSE,153,9.0,9.0,47,0.00,,,0.00,Wunderground v.1.15,2013-01-25 05:32:00,
2013-01-25 00:38:00,25.9,8.9,30.41,SE,138,6.0,9.0,48,0.00,,,0.00,Wunderground v.1.15,2013-01-25 05:38:00,
2013-01-25 00:44:00,25.6,8.1,30.42,SE,135,4.0,6.0,47,0.00,,,0.00,Wunderground v.1.15,2013-01-25 05:44:00,
2013-01-25 00:50:00,25.3,7.4,30.42,SE,138,5.0,6.0,46,0.00,,,0.00,Wunderground v.1.15,2013-01-25 05:50:00,
2013-01-25 00:56:00,25.0,7.6,30.42,ESE,107,4.0,6.0,47,0.00,,,0.00,Wunderground v.1.15,2013-01-25 05:56:00,
2013-01-25 01:02:00,24.8,7.9,30.41,SE,124,4.0,5.0,48,0.00,,,0.00,Wunderground v.1.15,2013-01-25 06:02:00,
2013-01-25 01:08:00,24.9,8.0,30.41,SE,137,4.0,16.0,48,0.00,,,0.00,Wunderground v.1.15,2013-01-25 06:08:00,
2013-01-25 01:14:00,25.0,8.5,30.41,South,173,4.0,16.0,49,0.00,,,0.00,Wunderground v.1.15,2013-01-25 06:14:00,
2013-01-25 01:20:00,25.2,9.1,30.40,SE,135,4.0,4.0,50,0.00,,,0.00,Wunderground v.1.15,2013-01-25 06:20:00,
2013-01-25 01:26:00,25.3,8.8,30.40,SSE,161,4.0,16.0,49,0.00,,,0.00,Wunderground v.1.15,2013-01-25 06:26:00,
2013-01-25 01:32:00,25.6,9.5,30.39,South,184,4.0,16.0,50,0.00,,,0.00,Wunderground v.1.15,2013-01-25 06:32:00,
2013-01-25 01:38:00,26.1,9.5,30.40,SSW,200,7.0,16.0,49,0.00,,,0.00,Wunderground v.1.15,2013-01-25 06:38:00,
2013-01-25 01:44:00,26.4,9.8,30.39,South,177,8.0,16.0,49,0.00,,,0.00,Wunderground v.1.15,2013-01-25 06:44:00,
2013-01-25 01:50:00,26.4,9.8,30.39,South,169,8.0,8.0,49,0.00,,,0.00,Wunderground v.1.15,2013-01-25 06:50:00,
2013-01-25 01:56:00,26.4,10.3,30.39,SSE,163,8.0,16.0,50,0.00,,,0.00,Wunderground v.1.15,2013-01-25 06:56:00,
2013-01-25 02:02:00,26.4,10.3,30.38,South,191,8.0,16.0,50,0.00,,,0.00,Wunderground v.1.15,2013-01-25 07:02:00,
2013-01-25 02:08:00,26.4,10.7,30.39,SSE,156,5.0,16.0,51,0.00,,,0.00,Wunderground v.1.15,2013-01-25 07:08:00,
2013-01-25 02:14:00,26.2,9.6,30.39,South,191,5.0,16.0,49,0.00,,,0.00,Wunderground v.1.15,2013-01-25 07:14:00,
2013-01-25 02:20:00,25.8,9.2,30.38,East,79,3.0,3.0,49,0.00,,,0.00,Wunderground v.1.15,2013-01-25 07:20:00,
2013-01-25 02:26:00,25.5,9.9,30.38,ESE,121,2.0,16.0,51,0.00,,,0.00,Wunderground v.1.15,2013-01-25 07:26:00,
2013-01-25 02:32:00,25.3,9.2,30.38,ESE,117,1.0,16.0,50,0.00,,,0.00,Wunderground v.1.15,2013-01-25 07:32:00,
2013-01-25 02:38:00,25.2,9.6,30.39,ENE,60,2.0,16.0,51,0.00,,,0.00,Wunderground v.1.15,2013-01-25 07:38:00,
2013-01-25 02:44:00,25.0,9.0,30.38,ESE,120,3.0,16.0,50,0.00,,,0.00,Wunderground v.1.15,2013-01-25 07:44:00,
2013-01-25 02:50:00,25.0,9.4,30.39,SE,127,4.0,4.0,51,0.00,,,0.00,Wunderground v.1.15,2013-01-25 07:50:00,
2013-01-25 02:56:00,25.0,9.0,30.38,East,101,3.0,16.0,50,0.00,,,0.00,Wunderground v.1.15,2013-01-25 07:56:00,
2013-01-25 03:02:00,25.1,9.0,30.38,ESE,119,3.0,16.0,50,0.00,,,0.00,Wunderground v.1.15,2013-01-25 08:02:00,
2013-01-25 03:08:00,25.2,9.1,30.39,ESE,105,3.0,16.0,50,0.00,,,0.00,Wunderground v.1.15,2013-01-25 08:08:00,
2013-01-25 03:14:00,25.2,9.1,30.38,East,84,4.0,16.0,50,0.00,,,0.00,Wunderground v.1.15,2013-01-25 08:14:00,
2013-01-25 03:20:00,25.3,8.8,30.37,ESE,105,3.0,3.0,49,0.00,,,0.00,Wunderground v.1.15,2013-01-25 08:20:00,
2013-01-25 03:26:00,25.4,9.3,30.37,ESE,108,3.0,16.0,50,0.00,,,0.00,Wunderground v.1.15,2013-01-25 08:26:00,
2013-01-25 03:32:00,25.5,9.4,30.36,SE,128,3.0,16.0,50,0.00,,,0.00,Wunderground v.1.15,2013-01-25 08:32:00,
2013-01-25 03:38:00,25.6,9.1,30.36,ENE,75,3.0,16.0,49,0.00,,,0.00,Wunderground v.1.15,2013-01-25 08:38:00,
2013-01-25 03:44:00,25.7,10.0,30.35,ESE,112,3.0,16.0,51,0.00,,,0.00,Wunderground v.1.15,2013-01-25 08:44:00,
2013-01-25 03:50:00,25.8,9.7,30.36,SE,125,2.0,16.0,50,0.00,,,0.00,Wunderground v.1.15,2013-01-25 08:50:00,
2013-01-25 03:56:00,26.0,9.9,30.36,ESE,121,3.0,16.0,50,0.00,,,0.00,Wunderground v.1.15,2013-01-25 08:56:00,
2013-01-25 04:02:00,26.0,10.3,30.36,ESE,121,4.0,16.0,51,0.00,,,0.00,Wunderground v.1.15,2013-01-25 09:02:00,
2013-01-25 04:08:00,26.1,10.0,30.35,SE,145,3.0,16.0,50,0.00,,,0.00,Wunderground v.1.15,2013-01-25 09:08:00,
2013-01-25 04:14:00,26.1,10.0,30.34,SE,135,3.0,16.0,50,0.00,,,0.00,Wunderground v.1.15,2013-01-25 09:14:00,
2013-01-25 04:20:00,26.2,10.1,30.34,SE,139,2.0,16.0,50,0.00,,,0.00,Wunderground v.1.15,2013-01-25 09:20:00,
2013-01-25 04:26:00,26.4,11.6,30.34,SSE,150,2.0,16.0,53,0.00,,,0.00,Wunderground v.1.15,2013-01-25 09:26:00,
2013-01-25 04:32:00,26.4,10.7,30.34,SE,143,3.0,16.0,51,0.00,,,0.00,Wunderground v.1.15,2013-01-25 09:32:00,
2013-01-25 04:38:00,26.5,10.8,30.33,SSE,152,4.0,16.0,51,0.00,,,0.00,Wunderground v.1.15,2013-01-25 09:38:00,
2013-01-25 04:44:00,26.6,11.3,30.33,SSE,151,3.0,16.0,52,0.00,,,0.00,Wunderground v.1.15,2013-01-25 09:44:00,
2013-01-25 04:50:00,26.6,10.9,30.32,SSE,153,4.0,4.0,51,0.00,,,0.00,Wunderground v.1.15,2013-01-25 09:50:00,
2013-01-25 04:56:00,26.7,11.4,30.32,South,169,5.0,16.0,52,0.00,,,0.00,Wunderground v.1.15,2013-01-25 09:56:00,
2013-01-25 05:02:00,26.9,11.6,30.32,South,181,4.0,16.0,52,0.00,,,0.00,Wunderground v.1.15,2013-01-25 10:02:00,
2013-01-25 05:08:00,27.1,11.3,30.32,SSE,158,6.0,16.0,51,0.00,,,0.00,Wunderground v.1.15,2013-01-25 10:08:00,
2013-01-25 05:14:00,27.3,12.4,30.32,SSE,159,6.0,16.0,53,0.00,,,0.00,Wunderground v.1.15,2013-01-25 10:14:00,
2013-01-25 05:20:00,27.1,11.8,30.31,SE,134,4.0,4.0,52,0.00,,,0.00,Wunderground v.1.15,2013-01-25 10:20:00,
2013-01-25 05:26:00,27.1,12.2,30.32,East,82,3.0,16.0,53,0.00,,,0.00,Wunderground v.1.15,2013-01-25 10:26:00,
2013-01-25 05:32:00,27.0,12.5,30.32,SE,131,3.0,4.0,54,0.00,,,0.00,Wunderground v.1.15,2013-01-25 10:32:00,
2013-01-25 05:38:00,26.9,12.5,30.32,ESE,111,3.0,16.0,54,0.00,,,0.00,Wunderground v.1.15,2013-01-25 10:38:00,
2013-01-25 05:44:00,26.8,13.2,30.32,ESE,122,3.0,16.0,56,0.00,,,0.00,Wunderground v.1.15,2013-01-25 10:44:00,
2013-01-25 05:50:00,26.6,13.0,30.32,SE,132,4.0,16.0,56,0.00,,,0.00,Wunderground v.1.15,2013-01-25 10:50:00,
2013-01-25 05:56:00,26.5,13.3,30.32,ESE,114,5.0,16.0,57,0.00,,,0.00,Wunderground v.1.15,2013-01-25 10:56:00,
2013-01-25 06:02:00,26.5,14.1,30.31,SE,135,4.0,16.0,59,0.00,,,0.00,Wunderground v.1.15,2013-01-25 11:02:00,
2013-01-25 06:08:00,26.3,15.0,30.33,ESE,117,5.0,16.0,62,0.00,,,0.00,Wunderground v.1.15,2013-01-25 11:08:00,
2013-01-25 06:14:00,26.2,16.0,30.32,SE,145,6.0,16.0,65,0.00,,,0.00,Wunderground v.1.15,2013-01-25 11:14:00,
2013-01-25 06:20:00,26.0,16.9,30.32,SSE,148,5.0,16.0,68,0.00,,,0.00,Wunderground v.1.15,2013-01-25 11:20:00,
2013-01-25 06:26:00,25.8,18.0,30.31,SSE,155,6.0,16.0,72,0.00,,,0.00,Wunderground v.1.15,2013-01-25 11:26:00,
2013-01-25 06:32:00,25.8,18.0,30.31,SE,141,4.0,16.0,72,0.00,,,0.00,Wunderground v.1.15,2013-01-25 11:32:00,
2013-01-25 06:38:00,25.8,18.0,30.31,SE,134,4.0,16.0,72,0.00,,,0.00,Wunderground v.1.15,2013-01-25 11:38:00,
2013-01-25 06:44:00,25.7,18.2,30.31,SSE,159,3.0,16.0,73,0.00,,,0.00,Wunderground v.1.15,2013-01-25 11:44:00,
2013-01-25 06:50:00,25.8,18.3,30.30,SSE,148,3.0,16.0,73,0.00,,,0.00,Wunderground v.1.15,2013-01-25 11:50:00,
2013-01-25 06:56:00,25.8,19.0,30.30,SSE,148,3.0,16.0,75,0.00,,,0.00,Wunderground v.1.15,2013-01-25 11:56:00,
2013-01-25 07:02:00,25.9,19.4,30.29,SE,135,3.0,16.0,76,0.00,,,0.00,Wunderground v.1.15,2013-01-25 12:02:00,
2013-01-25 07:08:00,26.0,19.8,30.29,SSE,158,3.0,16.0,77,0.00,,,0.00,Wunderground v.1.15,2013-01-25 12:08:00,
2013-01-25 07:14:00,26.2,19.4,30.30,South,175,3.0,16.0,75,0.00,,,0.00,Wunderground v.1.15,2013-01-25 12:14:00,
2013-01-25 07:20:00,26.5,19.6,30.30,SSE,155,4.0,4.0,75,0.00,,,0.00,Wunderground v.1.15,2013-01-25 12:20:00,
2013-01-25 07:26:00,26.5,19.3,30.30,South,190,4.0,16.0,74,0.00,,,0.00,Wunderground v.1.15,2013-01-25 12:26:00,
2013-01-25 07:32:00,26.4,19.5,30.30,SW,219,4.0,16.0,75,0.00,,,0.00,Wunderground v.1.15,2013-01-25 12:32:00,
2013-01-25 07:38:00,26.5,20.3,30.28,SSW,212,4.0,16.0,77,0.00,,,0.00,Wunderground v.1.15,2013-01-25 12:38:00,
2013-01-25 07:44:00,26.5,19.6,30.28,SW,221,5.0,16.0,75,0.00,,,0.00,Wunderground v.1.15,2013-01-25 12:44:00,
2013-01-25 07:50:00,26.5,20.0,30.29,SW,225,4.0,4.0,76,0.00,,,0.00,Wunderground v.1.15,2013-01-25 12:50:00,
2013-01-25 07:56:00,26.5,20.6,30.30,SW,221,2.0,16.0,78,0.00,,,0.00,Wunderground v.1.15,2013-01-25 12:56:00,
2013-01-25 08:02:00,26.5,20.3,30.29,South,183,2.0,16.0,77,0.00,,,0.00,Wunderground v.1.15,2013-01-25 13:02:00,
2013-01-25 08:08:00,26.5,20.3,30.28,West,264,2.0,16.0,77,0.00,,,0.00,Wunderground v.1.15,2013-01-25 13:08:00,
2013-01-25 08:14:00,26.6,20.7,30.28,South,186,1.0,16.0,78,0.00,,,0.00,Wunderground v.1.15,2013-01-25 13:14:00,
2013-01-25 08:20:00,26.6,21.0,30.29,NE,34,0.0,16.0,79,0.00,,,0.00,Wunderground v.1.15,2013-01-25 13:20:00,
2013-01-25 08:26:00,26.7,20.5,30.27,SSW,212,1.0,16.0,77,0.00,,,0.00,Wunderground v.1.15,2013-01-25 13:26:00,
2013-01-25 08:32:00,26.6,19.4,30.28,WSW,245,2.0,16.0,74,0.00,,,0.00,Wunderground v.1.15,2013-01-25 13:32:00,
2013-01-25 08:38:00,26.6,20.1,30.28,SW,235,2.0,16.0,76,0.00,,,0.00,Wunderground v.1.15,2013-01-25 13:38:00,
2013-01-25 08:44:00,26.6,19.7,30.28,West,273,2.0,16.0,75,0.00,,,0.00,Wunderground v.1.15,2013-01-25 13:44:00,
2013-01-25 08:50:00,26.6,20.1,30.28,SSW,194,1.0,16.0,76,0.00,,,0.00,Wunderground v.1.15,2013-01-25 13:50:00,
2013-01-25 08:56:00,26.7,20.8,30.27,SW,231,2.0,16.0,78,0.00,,,0.00,Wunderground v.1.15,2013-01-25 13:56:00,
2013-01-25 09:02:00,26.7,21.1,30.26,SSW,211,4.0,16.0,79,0.00,,,0.00,Wunderground v.1.15,2013-01-25 14:02:00,
2013-01-25 09:08:00,26.7,21.1,30.27,SE,135,3.0,16.0,79,0.00,,,0.00,Wunderground v.1.15,2013-01-25 14:08:00,
2013-01-25 09:14:00,26.8,22.0,30.27,South,172,1.0,16.0,82,0.00,,,0.00,Wunderground v.1.15,2013-01-25 14:14:00,
2013-01-25 09:20:00,26.7,22.2,30.27,SE,125,0.0,16.0,83,0.00,,,0.00,Wunderground v.1.15,2013-01-25 14:20:00,
2013-01-25 09:26:00,26.7,22.5,30.26,SE,138,0.0,16.0,84,0.00,,,0.00,Wunderground v.1.15,2013-01-25 14:26:00,
2013-01-25 09:32:00,26.8,22.6,30.26,SSE,163,1.0,16.0,84,0.00,,,0.00,Wunderground v.1.15,2013-01-25 14:32:00,
2013-01-25 09:38:00,26.8,22.6,30.27,SE,139,0.0,16.0,84,0.00,,,0.00,Wunderground v.1.15,2013-01-25 14:38:00,
2013-01-25 09:44:00,27.0,22.5,30.26,SSE,166,1.0,16.0,83,0.00,,,0.00,Wunderground v.1.15,2013-01-25 14:44:00,
2013-01-25 09:50:00,27.1,22.9,30.25,SSE,150,1.0,16.0,84,0.00,,,0.00,Wunderground v.1.15,2013-01-25 14:50:00,
2013-01-25 09:56:00,27.1,22.0,30.25,South,184,2.0,16.0,81,0.00,,,0.00,Wunderground v.1.15,2013-01-25 14:56:00,
2013-01-25 10:02:00,27.4,22.0,30.24,South,183,4.0,16.0,80,0.00,,,0.00,Wunderground v.1.15,2013-01-25 15:02:00,
2013-01-25 10:08:00,27.5,22.4,30.24,SSW,212,4.0,16.0,81,0.00,,,0.00,Wunderground v.1.15,2013-01-25 15:08:00,
2013-01-25 10:14:00,27.5,22.1,30.24,SW,214,3.0,16.0,80,0.00,,,0.00,Wunderground v.1.15,2013-01-25 15:14:00,
2013-01-25 10:20:00,27.5,22.1,30.23,SW,233,4.0,16.0,80,0.00,,,0.00,Wunderground v.1.15,2013-01-25 15:20:00,
2013-01-25 10:26:00,27.4,22.3,30.23,SW,215,5.0,16.0,81,0.00,,,0.00,Wunderground v.1.15,2013-01-25 15:26:00,
2013-01-25 10:32:00,27.3,22.5,30.23,SSW,211,4.0,16.0,82,0.00,,,0.00,Wunderground v.1.15,2013-01-25 15:32:00,
2013-01-25 10:38:00,27.3,23.1,30.24,SSW,203,3.0,16.0,84,0.00,,,0.00,Wunderground v.1.15,2013-01-25 15:38:00,
2013-01-25 10:44:00,27.4,23.5,30.24,NW,316,1.0,16.0,85,0.00,,,0.00,Wunderground v.1.15,2013-01-25 15:44:00,
2013-01-25 10:50:00,27.5,23.6,30.24,NNW,347,1.0,1.0,85,0.00,,,0.00,Wunderground v.1.15,2013-01-25 15:50:00,
2013-01-25 10:56:00,27.6,24.0,30.24,SW,225,1.0,16.0,86,0.00,,,0.00,Wunderground v.1.15,2013-01-25 15:56:00,
2013-01-25 11:02:00,27.6,23.7,30.23,SW,219,1.0,16.0,85,0.00,,,0.00,Wunderground v.1.15,2013-01-25 16:02:00,
2013-01-25 11:08:00,27.8,24.2,30.22,South,186,0.0,16.0,86,0.00,,,0.00,Wunderground v.1.15,2013-01-25 16:08:00,
2013-01-25 11:14:00,27.8,24.4,30.22,South,182,1.0,16.0,87,0.00,,,0.00,Wunderground v.1.15,2013-01-25 16:14:00,
2013-01-25 11:20:00,27.8,24.4,30.23,WSW,240,1.0,1.0,87,0.00,,,0.00,Wunderground v.1.15,2013-01-25 16:20:00,
2013-01-25 11:26:00,28.0,24.9,30.25,ENE,58,2.0,16.0,88,0.00,,,0.00,Wunderground v.1.15,2013-01-25 16:26:00,
2013-01-25 11:32:00,28.2,25.1,30.23,NE,50,1.0,16.0,88,0.00,,,0.00,Wunderground v.1.15,2013-01-25 16:32:00,
2013-01-25 11:38:00,28.2,24.8,30.23,NW,324,0.0,16.0,87,0.00,,,0.00,Wunderground v.1.15,2013-01-25 16:38:00,
2013-01-25 11:44:00,28.3,24.9,30.23,NNE,18,1.0,16.0,87,0.00,,,0.00,Wunderground v.1.15,2013-01-25 16:44:00,
2013-01-25 11:50:00,28.3,24.9,30.23,NNW,333,1.0,16.0,87,0.33,,,0.03,Wunderground v.1.15,2013-01-25 16:50:00,
2013-01-25 11:56:00,28.4,25.3,30.22,West,262,1.0,16.0,88,0.40,,,0.09,Wunderground v.1.15,2013-01-25 16:56:00,
2013-01-25 12:02:00,28.6,25.8,30.21,NW,311,0.0,16.0,89,0.08,,,0.09,Wunderground v.1.15,2013-01-25 17:02:00,
2013-01-25 12:08:00,28.6,25.8,30.21,NW,326,1.0,16.0,89,0.04,,,0.09,Wunderground v.1.15,2013-01-25 17:08:00,
2013-01-25 12:14:00,28.7,26.1,30.21,NNE,16,1.0,16.0,90,0.00,,,0.09,Wunderground v.1.15,2013-01-25 17:14:00,
2013-01-25 12:20:00,28.9,26.6,30.21,NNE,16,0.0,16.0,91,0.00,,,0.09,Wunderground v.1.15,2013-01-25 17:20:00,
2013-01-25 12:26:00,29.1,27.1,30.22,North,11,1.0,16.0,92,0.00,,,0.09,Wunderground v.1.15,2013-01-25 17:26:00,
2013-01-25 12:32:00,29.4,27.4,30.22,North,350,1.0,16.0,92,0.00,,,0.09,Wunderground v.1.15,2013-01-25 17:32:00,
2013-01-25 12:38:00,29.6,27.6,30.21,NNE,23,1.0,16.0,92,0.00,,,0.09,Wunderground v.1.15,2013-01-25 17:38:00,
2013-01-25 12:44:00,29.7,27.4,30.22,North,7,3.0,16.0,91,0.00,,,0.09,Wunderground v.1.15,2013-01-25 17:44:00,
2013-01-25 12:50:00,29.9,27.3,30.21,North,8,4.0,4.0,90,0.00,,,0.09,Wunderground v.1.15,2013-01-25 17:50:00,
2013-01-25 12:56:00,30.0,27.4,30.22,North,8,3.0,16.0,90,0.00,,,0.09,Wunderground v.1.15,2013-01-25 17:56:00,
2013-01-25 13:02:00,30.1,27.8,30.22,North,8,2.0,16.0,91,0.00,,,0.09,Wunderground v.1.15,2013-01-25 18:02:00,
2013-01-25 13:08:00,30.1,27.8,30.21,North,8,1.0,16.0,91,0.00,,,0.09,Wunderground v.1.15,2013-01-25 18:08:00,
2013-01-25 13:14:00,30.1,27.8,30.20,North,8,1.0,16.0,91,0.00,,,0.09,Wunderground v.1.15,2013-01-25 18:14:00,
2013-01-25 13:20:00,30.2,27.9,30.21,North,8,1.0,16.0,91,0.00,,,0.09,Wunderground v.1.15,2013-01-25 18:20:00,
2013-01-25 13:26:00,30.1,27.5,30.21,North,8,3.0,16.0,90,0.00,,,0.09,Wunderground v.1.15,2013-01-25 18:26:00,
2013-01-25 13:32:00,30.0,27.4,30.20,North,8,4.0,16.0,90,0.00,,,0.09,Wunderground v.1.15,2013-01-25 18:32:00,
2013-01-25 13:38:00,30.0,27.7,30.20,North,8,4.0,16.0,91,0.00,,,0.09,Wunderground v.1.15,2013-01-25 18:38:00,
2013-01-25 13:44:00,30.0,27.7,30.20,North,8,3.0,16.0,91,0.00,,,0.09,Wunderground v.1.15,2013-01-25 18:44:00,
2013-01-25 13:50:00,30.0,27.7,30.20,North,7,2.0,16.0,91,0.00,,,0.09,Wunderground v.1.15,2013-01-25 18:50:00,
2013-01-25 13:56:00,30.0,27.7,30.20,North,8,2.0,16.0,91,0.00,,,0.09,Wunderground v.1.15,2013-01-25 18:56:00,
2013-01-25 14:02:00,30.0,28.0,30.19,North,7,3.0,16.0,92,0.00,,,0.09,Wunderground v.1.15,2013-01-25 19:02:00,
2013-01-25 14:08:00,30.1,28.1,30.19,North,7,3.0,16.0,92,0.00,,,0.09,Wunderground v.1.15,2013-01-25 19:08:00,
2013-01-25 14:14:00,30.1,28.1,30.18,North,8,4.0,16.0,92,0.00,,,0.09,Wunderground v.1.15,2013-01-25 19:14:00,
2013-01-25 14:20:00,30.2,28.2,30.18,North,8,4.0,4.0,92,0.00,,,0.09,Wunderground v.1.15,2013-01-25 19:20:00,
2013-01-25 14:26:00,30.1,28.1,30.18,North,8,4.0,16.0,92,0.00,,,0.09,Wunderground v.1.15,2013-01-25 19:26:00,
2013-01-25 14:32:00,30.1,28.1,30.17,North,8,4.0,16.0,92,0.00,,,0.09,Wunderground v.1.15,2013-01-25 19:32:00,
2013-01-25 14:38:00,30.2,28.4,30.17,North,8,4.0,16.0,93,0.00,,,0.09,Wunderground v.1.15,2013-01-25 19:38:00,
2013-01-25 14:44:00,30.3,28.5,30.17,North,8,4.0,16.0,93,0.00,,,0.09,Wunderground v.1.15,2013-01-25 19:44:00,
2013-01-25 14:50:00,30.4,28.6,30.17,North,8,3.0,16.0,93,0.00,,,0.09,Wunderground v.1.15,2013-01-25 19:50:00,
2013-01-25 14:56:00,30.4,28.6,30.18,North,8,2.0,16.0,93,0.00,,,0.09,Wunderground v.1.15,2013-01-25 19:56:00,
2013-01-25 15:02:00,30.4,28.6,30.18,North,8,1.0,16.0,93,0.00,,,0.09,Wunderground v.1.15,2013-01-25 20:02:00,
2013-01-25 15:08:00,30.5,28.7,30.18,North,8,1.0,16.0,93,0.00,,,0.09,Wunderground v.1.15,2013-01-25 20:08:00,
2013-01-25 15:14:00,30.5,29.0,30.17,North,8,3.0,16.0,94,0.00,,,0.09,Wunderground v.1.15,2013-01-25 20:14:00,
2013-01-25 15:20:00,30.5,29.0,30.17,North,8,3.0,16.0,94,0.00,,,0.09,Wunderground v.1.15,2013-01-25 20:20:00,
2013-01-25 15:26:00,30.6,29.1,30.17,North,8,3.0,16.0,94,0.00,,,0.09,Wunderground v.1.15,2013-01-25 20:26:00,
2013-01-25 15:32:00,30.7,29.2,30.17,North,8,1.0,16.0,94,0.00,,,0.09,Wunderground v.1.15,2013-01-25 20:32:00,
2013-01-25 15:38:00,30.8,29.3,30.17,North,8,2.0,16.0,94,0.00,,,0.09,Wunderground v.1.15,2013-01-25 20:38:00,
2013-01-25 15:44:00,30.9,29.4,30.17,North,8,2.0,4.0,94,0.00,,,0.09,Wunderground v.1.15,2013-01-25 20:44:00,
2013-01-25 15:50:00,31.0,29.5,30.17,North,8,2.0,16.0,94,0.00,,,0.09,Wunderground v.1.15,2013-01-25 20:50:00,
2013-01-25 15:56:00,31.1,29.6,30.17,North,8,2.0,16.0,94,0.00,,,0.09,Wunderground v.1.15,2013-01-25 20:56:00,
2013-01-25 16:02:00,31.2,29.7,30.16,North,8,2.0,16.0,94,0.00,,,0.09,Wunderground v.1.15,2013-01-25 21:02:00,
2013-01-25 16:08:00,31.3,29.8,30.16,North,8,3.0,16.0,94,0.00,,,0.09,Wunderground v.1.15,2013-01-25 21:08:00,
2013-01-25 16:14:00,31.4,29.9,30.16,North,8,3.0,16.0,94,0.00,,,0.09,Wunderground v.1.15,2013-01-25 21:14:00,
2013-01-25 16:20:00,31.4,29.9,30.17,North,8,3.0,16.0,94,0.00,,,0.09,Wunderground v.1.15,2013-01-25 21:20:00,
2013-01-25 16:26:00,31.6,30.1,30.17,North,8,2.0,16.0,94,0.00,,,0.09,Wunderground v.1.15,2013-01-25 21:26:00,
2013-01-25 16:32:00,31.6,30.1,30.17,North,8,2.0,16.0,94,0.00,,,0.09,Wunderground v.1.15,2013-01-25 21:32:00,
2013-01-25 16:38:00,31.8,30.3,30.18,North,8,3.0,16.0,94,0.00,,,0.09,Wunderground v.1.15,2013-01-25 21:38:00,
2013-01-25 16:44:00,31.9,30.4,30.18,North,8,3.0,16.0,94,0.00,,,0.09,Wunderground v.1.15,2013-01-25 21:44:00,
2013-01-25 16:50:00,32.1,30.8,30.18,North,8,2.0,16.0,95,0.00,,,0.09,Wunderground v.1.15,2013-01-25 21:50:00,
2013-01-25 16:56:00,32.2,30.9,30.18,North,8,3.0,16.0,95,0.00,,,0.09,Wunderground v.1.15,2013-01-25 21:56:00,
2013-01-25 17:02:00,32.3,31.0,30.18,North,8,2.0,16.0,95,0.00,,,0.09,Wunderground v.1.15,2013-01-25 22:02:00,
2013-01-25 17:08:00,32.4,31.1,30.18,North,8,2.0,16.0,95,0.00,,,0.09,Wunderground v.1.15,2013-01-25 22:08:00,
2013-01-25 17:14:00,32.4,31.1,30.18,North,8,3.0,16.0,95,0.00,,,0.09,Wunderground v.1.15,2013-01-25 22:14:00,
2013-01-25 17:20:00,32.5,31.2,30.18,North,8,3.0,16.0,95,0.00,,,0.09,Wunderground v.1.15,2013-01-25 22:20:00,
2013-01-25 17:26:00,32.7,31.4,30.19,North,8,3.0,16.0,95,0.00,,,0.09,Wunderground v.1.15,2013-01-25 22:26:00,
2013-01-25 17:32:00,32.8,31.5,30.18,North,7,3.0,16.0,95,0.00,,,0.09,Wunderground v.1.15,2013-01-25 22:32:00,
2013-01-25 17:38:00,32.9,31.6,30.18,North,354,4.0,16.0,95,0.00,,,0.09,Wunderground v.1.15,2013-01-25 22:38:00,
2013-01-25 17:44:00,33.2,31.9,30.18,North,359,5.0,16.0,95,0.00,,,0.09,Wunderground v.1.15,2013-01-25 22:44:00,
2013-01-25 17:50:00,33.3,32.0,30.18,North,357,6.0,6.0,95,0.00,,,0.09,Wunderground v.1.15,2013-01-25 22:50:00,
2013-01-25 17:56:00,33.5,32.0,30.18,NNE,14,6.0,16.0,94,0.00,,,0.09,Wunderground v.1.15,2013-01-25 22:56:00,
2013-01-25 18:02:00,33.6,32.1,30.18,North,358,8.0,8.0,94,0.00,,,0.09,Wunderground v.1.15,2013-01-25 23:02:00,
2013-01-25 18:08:00,33.7,32.2,30.18,North,359,8.0,16.0,94,0.00,,,0.09,Wunderground v.1.15,2013-01-25 23:08:00,
2013-01-25 18:14:00,33.8,32.3,30.18,NNE,13,7.0,16.0,94,0.00,,,0.09,Wunderground v.1.15,2013-01-25 23:14:00,
2013-01-25 18:20:00,33.9,32.4,30.18,NNE,20,7.0,16.0,94,0.00,,,0.09,Wunderground v.1.15,2013-01-25 23:20:00,
2013-01-25 18:26:00,33.8,32.0,30.18,NNE,13,7.0,16.0,93,0.00,,,0.09,Wunderground v.1.15,2013-01-25 23:26:00,
2013-01-25 18:32:00,33.9,32.1,30.19,North,350,7.0,16.0,93,0.00,,,0.09,Wunderground v.1.15,2013-01-25 23:32:00,
2013-01-25 18:38:00,33.8,32.0,30.19,North,8,5.0,16.0,93,0.00,,,0.09,Wunderground v.1.15,2013-01-25 23:38:00,
2013-01-25 18:44:00,33.7,31.9,30.19,NNW,347,4.0,16.0,93,0.00,,,0.09,Wunderground v.1.15,2013-01-25 23:44:00,
2013-01-25 18:50:00,33.5,32.0,30.19,NNW,328,4.0,4.0,94,0.00,,,0.09,Wunderground v.1.15,2013-01-25 23:50:00,
2013-01-25 18:56:00,33.5,32.0,30.19,NNW,330,3.0,16.0,94,0.00,,,0.09,Wunderground v.1.15,2013-01-25 23:56:00,
2013-01-25 19:02:00,33.5,32.0,30.19,NNE,32,2.0,16.0,94,0.00,,,0.09,Wunderground v.1.15,2013-01-26 00:02:00,
2013-01-25 19:08:00,33.5,32.0,30.19,NW,311,1.0,16.0,94,0.00,,,0.09,Wunderground v.1.15,2013-01-26 00:08:00,
2013-01-25 19:14:00,33.5,32.0,30.20,North,354,2.0,16.0,94,0.00,,,0.09,Wunderground v.1.15,2013-01-26 00:14:00,
2013-01-25 19:20:00,33.5,32.0,30.20,NNW,330,2.0,16.0,94,0.00,,,0.09,Wunderground v.1.15,2013-01-26 00:20:00,
2013-01-25 19:26:00,33.5,32.0,30.20,NW,314,3.0,16.0,94,0.00,,,0.09,Wunderground v.1.15,2013-01-26 00:26:00,
2013-01-25 19:32:00,33.5,32.0,30.20,North,11,4.0,5.0,94,0.00,,,0.09,Wunderground v.1.15,2013-01-26 00:32:00,
2013-01-25 19:38:00,33.6,32.1,30.20,NNW,342,4.0,16.0,94,0.00,,,0.09,Wunderground v.1.15,2013-01-26 00:38:00,
2013-01-25 19:44:00,33.6,32.1,30.20,North,9,4.0,16.0,94,0.00,,,0.09,Wunderground v.1.15,2013-01-26 00:44:00,
2013-01-25 19:50:00,33.7,32.2,30.20,North,349,5.0,5.0,94,0.00,,,0.09,Wunderground v.1.15,2013-01-26 00:50:00,
2013-01-25 19:56:00,33.7,32.2,30.21,NNE,23,5.0,16.0,94,0.00,,,0.09,Wunderground v.1.15,2013-01-26 00:56:00,
2013-01-25 20:02:00,33.7,32.2,30.21,North,359,4.0,16.0,94,0.00,,,0.09,Wunderground v.1.15,2013-01-26 01:02:00,
2013-01-25 20:08:00,33.8,32.3,30.20,North,1,4.0,16.0,94,0.00,,,0.09,Wunderground v.1.15,2013-01-26 01:08:00,
2013-01-25 20:14:00,33.9,32.4,30.20,NNE,15,5.0,16.0,94,0.00,,,0.09,Wunderground v.1.15,2013-01-26 01:14:00,
2013-01-25 20:20:00,34.0,32.5,30.20,NNE,21,5.0,5.0,94,0.00,,,0.09,Wunderground v.1.15,2013-01-26 01:20:00,
2013-01-25 20:26:00,34.0,32.5,30.21,North,6,5.0,16.0,94,0.00,,,0.09,Wunderground v.1.15,2013-01-26 01:26:00,
2013-01-25 20:32:00,34.0,32.5,30.21,North,1,4.0,16.0,94,0.00,,,0.09,Wunderground v.1.15,2013-01-26 01:32:00,
2013-01-25 20:38:00,34.0,32.5,30.20,NNW,342,2.0,16.0,94,0.00,,,0.09,Wunderground v.1.15,2013-01-26 01:38:00,
2013-01-25 20:44:00,33.9,32.4,30.20,North,11,1.0,16.0,94,0.00,,,0.09,Wunderground v.1.15,2013-01-26 01:44:00,
2013-01-25 20:50:00,33.9,32.4,30.21,NNW,344,2.0,2.0,94,0.00,,,0.09,Wunderground v.1.15,2013-01-26 01:50:00,
2013-01-25 20:56:00,33.9,32.4,30.21,NNW,338,3.0,16.0,94,0.00,,,0.09,Wunderground v.1.15,2013-01-26 01:56:00,
2013-01-25 21:02:00,33.9,32.4,30.22,North,5,4.0,16.0,94,0.00,,,0.09,Wunderground v.1.15,2013-01-26 02:02:00,
2013-01-25 21:08:00,33.9,32.4,30.22,North,9,4.0,16.0,94,0.00,,,0.09,Wunderground v.1.15,2013-01-26 02:08:00,
2013-01-25 21:14:00,33.8,32.3,30.22,North,354,4.0,16.0,94,0.00,,,0.09,Wunderground v.1.15,2013-01-26 02:14:00,
2013-01-25 21:20:00,33.8,32.3,30.22,NW,319,3.0,16.0,94,0.00,,,0.09,Wunderground v.1.15,2013-01-26 02:20:00,
2013-01-25 21:26:00,33.7,32.4,30.22,North,358,3.0,16.0,95,0.00,,,0.09,Wunderground v.1.15,2013-01-26 02:26:00,
2013-01-25 21:32:00,33.8,32.5,30.22,North,1,2.0,16.0,95,0.00,,,0.09,Wunderground v.1.15,2013-01-26 02:32:00,
2013-01-25 21:38:00,33.8,32.5,30.22,WNW,300,2.0,16.0,95,0.00,,,0.09,Wunderground v.1.15,2013-01-26 02:38:00,
2013-01-25 21:44:00,33.8,32.5,30.22,North,11,2.0,16.0,95,0.00,,,0.09,Wunderground v.1.15,2013-01-26 02:44:00,
2013-01-25 21:50:00,33.9,32.6,30.23,NNW,333,2.0,2.0,95,0.00,,,0.09,Wunderground v.1.15,2013-01-26 02:50:00,
2013-01-25 21:56:00,33.9,32.6,30.23,North,357,3.0,16.0,95,0.00,,,0.09,Wunderground v.1.15,2013-01-26 02:56:00,
2013-01-25 22:02:00,33.9,32.6,30.23,North,349,3.0,16.0,95,0.00,,,0.09,Wunderground v.1.15,2013-01-26 03:02:00,
2013-01-25 22:08:00,33.9,32.6,30.22,NNW,327,4.0,16.0,95,0.00,,,0.09,Wunderground v.1.15,2013-01-26 03:08:00,
2013-01-25 22:14:00,33.8,32.5,30.23,North,356,3.0,16.0,95,0.00,,,0.09,Wunderground v.1.15,2013-01-26 03:14:00,
2013-01-25 22:20:00,33.8,32.5,30.23,NNW,337,3.0,3.0,95,0.00,,,0.09,Wunderground v.1.15,2013-01-26 03:20:00,
2013-01-25 22:26:00,33.7,32.4,30.23,North,356,3.0,16.0,95,0.00,,,0.09,Wunderground v.1.15,2013-01-26 03:26:00,
2013-01-25 22:32:00,33.7,32.4,30.23,North,352,3.0,16.0,95,0.00,,,0.09,Wunderground v.1.15,2013-01-26 03:32:00,
2013-01-25 22:38:00,33.6,32.3,30.23,North,360,2.0,16.0,95,0.00,,,0.09,Wunderground v.1.15,2013-01-26 03:38:00,
2013-01-25 22:44:00,33.6,32.3,30.23,North,11,2.0,16.0,95,0.00,,,0.09,Wunderground v.1.15,2013-01-26 03:44:00,
2013-01-25 22:50:00,33.6,32.3,30.23,North,1,1.0,1.0,95,0.00,,,0.09,Wunderground v.1.15,2013-01-26 03:50:00,
2013-01-25 22:56:00,33.6,32.3,30.23,NNE,19,1.0,16.0,95,0.00,,,0.09,Wunderground v.1.15,2013-01-26 03:56:00,
2013-01-25 23:02:00,33.6,32.3,30.24,NNE,18,1.0,16.0,95,0.00,,,0.09,Wunderground v.1.15,2013-01-26 04:02:00,
2013-01-25 23:08:00,33.6,32.3,30.24,NNE,16,1.0,16.0,95,0.00,,,0.09,Wunderground v.1.15,2013-01-26 04:08:00,
2013-01-25 23:14:00,33.6,32.3,30.23,NNW,336,1.0,16.0,95,0.00,,,0.09,Wunderground v.1.15,2013-01-26 04:14:00,
2013-01-25 23:20:00,33.6,32.3,30.24,North,349,1.0,16.0,95,0.00,,,0.09,Wunderground v.1.15,2013-01-26 04:20:00,
2013-01-25 23:26:00,33.6,32.3,30.24,NNE,17,2.0,16.0,95,0.00,,,0.09,Wunderground v.1.15,2013-01-26 04:26:00,
2013-01-25 23:32:00,33.6,32.3,30.24,NNE,12,2.0,16.0,95,0.00,,,0.09,Wunderground v.1.15,2013-01-26 04:32:00,
2013-01-25 23:38:00,33.6,32.3,30.24,NNW,344,3.0,16.0,95,0.00,,,0.09,Wunderground v.1.15,2013-01-26 04:38:00,
2013-01-25 23:44:00,33.6,32.3,30.24,North,359,3.0,16.0,95,0.00,,,0.09,Wunderground v.1.15,2013-01-26 04:44:00,
2013-01-25 23:50:00,33.6,32.3,30.25,North,359,4.0,4.0,95,0.00,,,0.09,Wunderground v.1.15,2013-01-26 04:50:00,
2013-01-25 23:56:00,33.5,32.2,30.25,North,358,3.0,16.0,95,0.00,,,0.09,Wunderground v.1.15,2013-01-26 04:56:00,